Time;durP1;ratioP1;P1;durP2;ratioP2;P2;SDS_P1;SDS_P2;PMS_P1;PMS_P2;Temp;Humidity;BMP_temperature;BMP_pressure;BME280_temperature;BME280_humidity;BME280_pressure;Samples;Min_cycle;Max_cycle;Signal;HPM_P1;HPM_P2
2023/06/10 00:02:22;;;;;;;5.25;4.75;;;;;;;17.03;76.56;97552.00;10579307;27;20047;-76
2023/06/10 00:07:46;;;;;;;7.80;4.40;;;;;;;16.90;75.96;97544.47;10613042;27;20392;-76
2023/06/10 00:13:10;;;;;;;6.90;4.40;;;;;;;16.73;76.55;97549.44;10563045;27;20043;-75
2023/06/10 00:18:31;;;;;;;6.90;4.45;;;;;;;16.63;76.87;97545.47;10584985;27;20043;-76
2023/06/10 00:23:52;;;;;;;5.55;4.65;;;;;;;16.56;77.17;97552.94;10582459;27;20127;-75
2023/06/10 00:29:13;;;;;;;7.85;4.50;;;;;;;16.49;77.43;97565.31;10598070;27;20046;-75
2023/06/10 00:34:35;;;;;;;8.85;5.05;;;;;;;16.42;77.67;97561.53;10583597;27;20047;-74
2023/06/10 00:39:56;;;;;;;6.35;4.47;;;;;;;16.41;77.87;97560.09;10597280;27;20427;-75
2023/06/10 00:45:18;;;;;;;6.70;4.40;;;;;;;16.41;77.90;97553.72;10583683;27;20035;-75
2023/06/10 00:50:39;;;;;;;5.40;4.50;;;;;;;16.34;78.03;97558.38;10607628;27;20062;-76
2023/06/10 00:55:59;;;;;;;5.30;4.30;;;;;;;16.31;78.29;97563.19;10566994;27;20496;-76
2023/06/10 01:01:22;;;;;;;5.10;4.20;;;;;;;16.33;78.44;97556.19;10567145;27;20043;-75
2023/06/10 01:07:03;;;;;;;7.43;4.80;;;;;;;16.31;78.94;97557.56;10569182;27;20058;-76
2023/06/10 01:13:02;;;;;;;6.53;4.88;;;;;;;16.30;78.97;97556.09;10581398;27;20117;-75
2023/06/10 01:18:25;;;;;;;7.53;5.10;;;;;;;16.28;78.98;97570.09;10577902;27;20043;-76
2023/06/10 01:23:46;;;;;;;9.50;5.38;;;;;;;16.22;79.26;97572.66;10568588;27;20036;-76
2023/06/10 01:29:08;;;;;;;6.43;5.60;;;;;;;16.14;79.37;97577.22;10568030;27;20046;-76
2023/06/10 01:34:29;;;;;;;7.20;5.38;;;;;;;16.08;79.71;97580.50;10568091;27;20055;-76
2023/06/10 01:39:51;;;;;;;8.60;6.30;;;;;;;16.01;80.10;97582.31;10595810;27;20047;-76
2023/06/10 01:45:12;;;;;;;6.55;5.00;;;;;;;15.99;80.33;97585.03;10595979;27;20065;-75
2023/06/10 01:50:35;;;;;;;9.20;6.20;;;;;;;16.02;80.47;97588.69;10596381;27;20397;-75
2023/06/10 01:55:57;;;;;;;12.77;6.20;;;;;;;15.99;80.63;97599.13;10595727;27;20040;-75
2023/06/10 02:01:18;;;;;;;12.18;5.65;;;;;;;15.96;80.97;97591.94;10594377;28;20124;-76
2023/06/10 02:06:39;;;;;;;7.95;5.57;;;;;;;15.91;80.85;97601.56;10580484;28;20051;-75
2023/06/10 02:12:02;;;;;;;10.68;5.95;;;;;;;15.94;81.24;97602.41;10580386;28;20051;-76
2023/06/10 02:17:23;;;;;;;7.78;5.40;;;;;;;15.98;81.78;97606.13;10594657;28;20039;-76
2023/06/10 02:22:44;;;;;;;8.13;6.20;;;;;;;16.05;81.75;97609.94;10594855;28;20546;-73
2023/06/10 02:28:05;;;;;;;9.48;6.20;;;;;;;16.00;81.57;97602.66;10608392;27;20047;-75
2023/06/10 02:33:27;;;;;;;10.43;5.65;;;;;;;15.92;81.87;97608.69;10594484;28;20051;-75
2023/06/10 02:38:48;;;;;;;7.47;6.20;;;;;;;15.79;81.87;97605.94;10594367;28;20039;-74
2023/06/10 02:44:11;;;;;;;8.35;6.07;;;;;;;15.71;82.21;97612.66;10580818;28;20040;-76
2023/06/10 02:49:33;;;;;;;10.95;7.13;;;;;;;15.68;82.73;97613.94;10579609;28;20070;-76
2023/06/10 02:54:55;;;;;;;10.20;6.80;;;;;;;15.66;82.98;97607.50;10594342;28;20409;-75
2023/06/10 03:00:17;;;;;;;10.90;6.60;;;;;;;15.59;82.83;97609.25;10607757;28;20046;-75
2023/06/10 03:05:38;;;;;;;11.73;7.63;;;;;;;15.59;83.17;97614.88;10579349;28;20119;-75
2023/06/10 03:11:00;;;;;;;8.27;6.95;;;;;;;15.64;83.33;97619.38;10583394;27;20094;-74
2023/06/10 03:16:25;;;;;;;8.98;7.28;;;;;;;15.70;83.30;97616.09;10587064;27;20434;-75
2023/06/10 03:21:49;;;;;;;9.98;7.50;;;;;;;15.76;83.37;97624.09;10574124;27;20488;-75
2023/06/10 03:27:11;;;;;;;8.25;6.63;;;;;;;15.85;83.66;97618.19;10556530;27;20043;-75
2023/06/10 03:32:36;;;;;;;;;;;;;;;15.93;83.69;97612.22;10578307;27;20098;-74
2023/06/10 03:37:59;;;;;;;10.25;7.43;;;;;;;16.01;83.43;97621.00;10556558;28;19985;-76
2023/06/10 03:43:21;;;;;;;10.07;7.30;;;;;;;16.05;83.23;97624.00;10555935;28;20039;-76
2023/06/10 03:48:44;;;;;;;9.30;7.53;;;;;;;16.14;83.23;97627.91;10540359;28;20036;-75
2023/06/10 03:54:06;;;;;;;10.75;8.23;;;;;;;16.27;83.39;97629.88;10553729;28;20115;-75
2023/06/10 03:59:28;;;;;;;9.90;6.65;;;;;;;16.46;83.01;97628.56;10539810;28;20034;-73
2023/06/10 04:04:51;;;;;;;10.73;8.23;;;;;;;16.67;83.05;97636.50;10539871;28;20035;-74
2023/06/10 04:10:13;;;;;;;;;;;;;;;16.77;82.30;97644.69;10523718;28;20040;-76
2023/06/10 04:15:33;;;;;;;9.27;8.38;;;;;;;16.99;82.20;97647.72;10568991;28;20006;-75
2023/06/10 04:20:59;;;;;;;12.38;9.13;;;;;;;17.04;81.10;97644.41;10541407;28;20047;-74
2023/06/10 04:26:22;;;;;;;11.25;8.05;;;;;;;17.06;81.25;97650.13;10527111;28;20036;-75
2023/06/10 04:31:46;;;;;;;10.02;7.60;;;;;;;17.13;81.78;97659.56;10547851;27;20058;-74
2023/06/10 04:37:07;;;;;;;10.37;8.20;;;;;;;17.34;81.64;97650.53;10583422;27;20039;-75
2023/06/10 04:42:28;;;;;;;10.27;7.40;;;;;;;17.55;81.16;97654.16;10574918;27;20059;-75
2023/06/10 04:47:49;;;;;;;11.65;7.30;;;;;;;17.68;81.07;97668.09;10569447;27;20234;-75
2023/06/10 04:53:11;;;;;;;9.05;7.38;;;;;;;17.85;80.65;97666.63;10547443;28;20043;-74
2023/06/10 04:58:35;;;;;;;12.40;8.43;;;;;;;18.06;80.16;97664.59;10557553;27;20038;-75
2023/06/10 05:03:56;;;;;;;9.93;7.80;;;;;;;18.40;79.79;97667.94;10570284;27;20032;-75
2023/06/10 05:09:17;;;;;;;12.02;8.65;;;;;;;18.64;78.61;97668.06;10533510;28;20058;-74
2023/06/10 05:14:37;;;;;;;10.23;8.45;;;;;;;19.07;78.45;97661.75;10550620;28;20409;-73
2023/06/10 05:19:58;;;;;;;7.90;6.22;;;;;;;20.36;74.51;97669.22;10553742;28;20047;-73
2023/06/10 05:25:19;;;;;;;7.60;5.35;;;;;;;21.55;73.17;97670.91;10574594;27;20035;-74
2023/06/10 05:30:40;;;;;;;9.15;6.80;;;;;;;22.22;69.50;97689.44;10580886;27;20043;-73
2023/06/10 05:36:01;;;;;;;6.30;4.72;;;;;;;22.45;66.22;97688.50;10593879;27;20126;-72
2023/06/10 05:41:22;;;;;;;7.78;4.60;;;;;;;22.38;63.38;97689.78;10595100;27;20515;-73
2023/06/10 05:46:43;;;;;;;6.38;4.18;;;;;;;22.96;62.10;97689.47;10590597;27;20469;-73
2023/06/10 05:52:04;;;;;;;4.63;3.58;;;;;;;23.08;59.71;97686.13;10606765;27;20404;-73
2023/06/10 05:57:25;;;;;;;4.75;3.08;;;;;;;22.97;57.26;97698.72;10576931;28;20039;-72
2023/06/10 06:02:46;;;;;;;5.68;3.65;;;;;;;22.34;58.09;97700.34;10571834;28;20040;-73
2023/06/10 06:08:07;;;;;;;5.18;3.75;;;;;;;22.64;57.84;97700.22;10571850;28;20468;-73
2023/06/10 06:13:28;;;;;;;4.35;2.97;;;;;;;24.06;56.27;97693.38;10594085;28;20074;-73
2023/06/10 06:18:49;;;;;;;5.55;3.70;;;;;;;24.69;51.95;97691.28;10580456;28;20097;-73
2023/06/10 06:24:10;;;;;;;4.07;3.40;;;;;;;24.53;51.83;97700.41;10593646;28;20048;-73
2023/06/10 06:29:31;;;;;;;6.63;3.40;;;;;;;24.93;51.68;97707.97;10579525;28;20043;-73
2023/06/10 06:34:54;;;;;;;3.38;3.05;;;;;;;24.93;50.44;97707.97;10607863;28;20081;-73
2023/06/10 06:40:16;;;;;;;5.18;3.60;;;;;;;25.14;49.23;97711.78;10579963;28;20473;-73
2023/06/10 06:45:38;;;;;;;4.03;3.25;;;;;;;25.10;49.57;97716.03;10598572;27;20063;-73
2023/06/10 06:50:58;;;;;;;5.88;3.10;;;;;;;25.38;49.13;97718.44;10601373;27;20389;-73
2023/06/10 06:56:20;;;;;;;3.80;2.88;;;;;;;25.70;48.03;97723.00;10585207;27;20043;-73
2023/06/10 07:01:41;;;;;;;6.27;3.43;;;;;;;25.31;47.02;97731.22;10544644;28;20044;-73
2023/06/10 07:07:02;;;;;;;3.38;3.00;;;;;;;25.50;47.07;97737.09;10544202;28;20626;-73
2023/06/10 07:12:23;;;;;;;3.65;2.58;;;;;;;25.99;46.45;97732.47;10558305;28;20048;-73
2023/06/10 07:17:44;;;;;;;3.90;2.70;;;;;;;25.99;46.33;97740.34;10521180;28;20083;-73
2023/06/10 07:23:05;;;;;;;3.55;3.22;;;;;;;25.10;46.23;97743.88;10501691;28;20044;-73
2023/06/10 07:28:26;;;;;;;4.07;2.80;;;;;;;24.24;48.39;97748.50;10529578;28;20040;-73
2023/06/10 07:33:48;;;;;;;5.53;3.70;;;;;;;24.81;48.08;97754.25;10554664;28;20062;-73
2023/06/10 07:39:08;;;;;;;4.43;3.38;;;;;;;25.20;47.11;97752.53;10564069;27;20093;-73
2023/06/10 07:44:30;;;;;;;6.13;3.45;;;;;;;26.68;44.74;97752.88;10596463;27;20447;-73
2023/06/10 07:49:51;;;;;;;5.78;3.67;;;;;;;26.41;44.41;97754.19;10597186;27;20047;-73
2023/06/10 07:55:12;;;;;;;4.93;3.92;;;;;;;25.13;45.24;97758.88;10582887;27;20043;-73
2023/06/10 08:00:33;;;;;;;7.03;4.68;;;;;;;23.63;48.57;97767.53;10582188;27;20097;-73
2023/06/10 08:05:53;;;;;;;8.65;4.85;;;;;;;23.19;49.99;97770.31;10585648;27;20050;-73
2023/06/10 08:11:14;;;;;;;7.10;4.90;;;;;;;22.74;51.72;97774.41;10591013;27;20059;-72
2023/06/10 08:16:35;;;;;;;5.68;4.60;;;;;;;22.41;52.83;97776.56;10541304;28;20043;-72
2023/06/10 08:21:55;;;;;;;6.72;5.00;;;;;;;21.98;55.41;97781.28;10541311;28;20036;-73
2023/06/10 08:27:16;;;;;;;8.02;5.05;;;;;;;21.73;55.87;97784.94;10555254;28;20044;-73
2023/06/10 08:32:37;;;;;;;7.35;5.00;;;;;;;21.88;56.25;97781.03;10601064;27;20051;-72
2023/06/10 08:37:58;;;;;;;8.60;5.15;;;;;;;21.65;57.74;97784.75;10582748;27;20092;-73
2023/06/10 08:43:37;;;;;;;6.05;4.78;;;;;;;21.60;57.46;97794.56;10588462;27;20054;-73
2023/06/10 08:48:58;;;;;;;9.95;6.38;;;;;;;21.60;58.40;97800.22;10560207;27;20035;-73
2023/06/10 08:54:21;;;;;;;7.05;5.28;;;;;;;21.86;58.04;97797.31;10563705;27;20070;-73
2023/06/10 08:59:42;;;;;;;6.80;5.30;;;;;;;21.84;58.02;97794.44;10540227;28;20158;-72
2023/06/10 09:05:03;;;;;;;6.50;5.53;;;;;;;21.90;58.52;97781.06;10595107;27;20074;-72
2023/06/10 09:10:25;;;;;;;7.07;5.40;;;;;;;22.02;58.83;97785.63;10591829;27;20496;-72
2023/06/10 09:15:47;;;;;;;8.48;5.47;;;;;;;22.28;58.21;97789.06;10567330;28;20051;-72
2023/06/10 09:21:08;;;;;;;8.68;6.82;;;;;;;22.49;58.74;97793.81;10552954;28;20046;-72
2023/06/10 09:26:32;;;;;;;8.20;5.82;;;;;;;22.76;58.10;97794.34;10570340;27;20136;-72
2023/06/10 09:31:55;;;;;;;5.97;5.38;;;;;;;23.13;57.84;97795.81;10627184;27;20123;-73
2023/06/10 09:37:21;;;;;;;10.10;5.32;;;;;;;23.30;57.09;97802.53;10623183;27;20096;-73
2023/06/10 09:42:43;;;;;;;7.78;5.30;;;;;;;23.24;56.49;97806.00;10619655;27;20066;-73
2023/06/10 09:48:04;;;;;;;8.07;5.05;;;;;;;23.00;56.32;97799.84;10651704;27;20042;-72
2023/06/10 09:53:25;;;;;;;9.25;5.72;;;;;;;23.04;56.15;97806.31;10623234;27;20061;-73
2023/06/10 09:58:46;;;;;;;9.45;5.22;;;;;;;23.08;56.11;97814.97;10557371;28;20043;-72
2023/06/10 10:04:07;;;;;;;5.47;4.93;;;;;;;22.85;56.15;97819.47;10552125;28;20043;-72
2023/06/10 10:09:29;;;;;;;6.40;4.68;;;;;;;22.68;56.48;97806.31;10523579;27;20052;-73
2023/06/10 10:14:50;;;;;;;7.03;5.07;;;;;;;23.02;56.74;97805.56;10651030;27;20047;-73
2023/06/10 10:20:12;;;;;;;6.82;4.57;;;;;;;23.61;56.12;97803.81;10640721;27;20388;-74
2023/06/10 10:25:38;;;;;;;10.60;4.78;;;;;;;24.04;55.52;97805.25;10645127;27;20046;-73
2023/06/10 10:31:01;;;;;;;5.38;4.43;;;;;;;25.00;53.96;97792.28;10644475;27;20039;-73
2023/06/10 10:36:22;;;;;;;6.45;4.82;;;;;;;26.30;51.76;97792.72;10645058;27;20091;-73
2023/06/10 10:41:43;;;;;;;3.97;3.58;;;;;;;27.64;46.96;97788.22;10634332;27;20111;-73
2023/06/10 10:47:07;;;;;;;7.78;3.53;;;;;;;27.88;44.76;97786.81;10619048;27;20043;-73
2023/06/10 10:52:55;;;;;;;4.45;3.15;;;;;;;28.25;42.71;97790.34;10618534;27;20080;-73
2023/06/10 10:58:17;;;;;;;7.47;3.67;;;;;;;28.64;41.94;97788.13;10621211;27;20444;-73
2023/06/10 11:03:46;;;;;;;6.30;3.30;;;;;;;29.04;39.88;97786.53;10620521;27;20035;-73
2023/06/10 11:09:34;;;;;;;4.13;3.20;;;;;;;28.79;39.24;97783.78;10647119;27;20522;-73
2023/06/10 11:14:56;;;;;;;5.32;3.60;;;;;;;28.52;40.46;97780.28;10613273;27;20043;-73
2023/06/10 11:20:48;;;;;;;8.38;3.97;;;;;;;28.52;40.49;97774.53;10602913;27;20065;-73
2023/06/10 11:26:26;;;;;;;7.72;3.67;;;;;;;28.88;40.56;97766.50;10599475;27;20037;-73
2023/06/10 11:31:51;;;;;;;5.00;3.55;;;;;;;28.31;40.05;97763.84;10612231;27;20127;-73
2023/06/10 11:37:12;;;;;;;5.07;4.00;;;;;;;26.62;41.79;97755.00;10599374;27;20130;-73
2023/06/10 11:42:33;;;;;;;5.30;4.13;;;;;;;25.56;44.26;97760.00;10585060;27;20038;-73
2023/06/10 11:47:57;;;;;;;5.25;3.88;;;;;;;25.68;45.25;97757.25;10584957;27;20039;-73
2023/06/10 11:53:18;;;;;;;7.78;3.88;;;;;;;26.53;44.50;97752.09;10584210;27;20050;-73
2023/06/10 11:58:42;;;;;;;6.05;3.97;;;;;;;27.71;43.19;97751.00;10598695;27;20039;-73
2023/06/10 12:04:07;;;;;;;7.30;3.97;;;;;;;28.48;41.09;97736.53;10598478;27;20039;-73
2023/06/10 12:09:29;;;;;;;7.25;3.80;;;;;;;29.41;39.25;97726.69;10584366;27;20035;-73
2023/06/10 12:14:56;;;;;;;6.35;4.20;;;;;;;29.50;37.45;97727.34;10598132;27;20508;-73
2023/06/10 12:20:25;;;;;;;6.50;3.70;;;;;;;27.45;39.63;97738.03;10583754;27;20039;-73
2023/06/10 12:25:54;;;;;;;5.28;3.70;;;;;;;26.96;41.50;97737.22;10581738;27;20118;-73
2023/06/10 12:31:15;;;;;;;5.88;3.80;;;;;;;27.53;40.09;97731.59;10582117;27;20058;-73
2023/06/10 12:36:36;;;;;;;5.20;3.40;;;;;;;27.94;39.13;97726.59;10567081;27;20378;-73
2023/06/10 12:41:57;;;;;;;5.32;4.00;;;;;;;28.06;39.30;97723.69;10566948;27;20035;-73
2023/06/10 12:47:18;;;;;;;4.75;3.63;;;;;;;27.72;39.83;97713.00;10566698;27;20046;-72
2023/06/10 12:52:39;;;;;;;4.68;3.40;;;;;;;27.50;40.62;97713.66;10568750;27;20393;-72
2023/06/10 12:58:01;;;;;;;5.25;3.83;;;;;;;26.79;40.26;97704.97;10565453;27;20035;-73
2023/06/10 13:03:22;;;;;;;4.60;3.85;;;;;;;26.55;41.20;97677.00;10565771;27;20374;-73
2023/06/10 13:08:43;;;;;;;8.60;4.15;;;;;;;26.92;40.28;97674.91;10570010;27;20126;-73
2023/06/10 13:14:04;;;;;;;6.57;4.10;;;;;;;26.91;39.64;97673.50;10565123;27;20067;-73
2023/06/10 13:19:25;;;;;;;6.70;4.07;;;;;;;27.00;40.18;97674.22;10567811;27;20039;-73
2023/06/10 13:24:46;;;;;;;7.05;3.72;;;;;;;27.11;40.39;97681.41;10557828;27;20043;-73
2023/06/10 13:30:08;;;;;;;7.05;3.53;;;;;;;26.81;41.70;97699.25;10583083;27;20066;-73
2023/06/10 13:35:29;;;;;;;6.18;3.55;;;;;;;26.58;43.03;97698.47;10552298;28;20109;-72
2023/06/10 13:40:50;;;;;;;7.40;4.00;;;;;;;25.92;43.25;97700.25;10552302;28;20039;-73
2023/06/10 13:46:13;;;;;;;5.75;3.50;;;;;;;25.17;44.69;97701.78;10552694;28;20036;-72
2023/06/10 13:51:34;;;;;;;7.30;4.07;;;;;;;24.50;46.38;97705.34;10552577;28;20039;-73
2023/06/10 13:56:54;;;;;;;8.02;4.05;;;;;;;24.19;47.87;97703.50;10537619;28;20120;-73
2023/06/10 14:02:16;;;;;;;8.30;4.20;;;;;;;23.97;49.45;97710.34;10538135;28;20477;-72
2023/06/10 14:07:38;;;;;;;8.68;3.78;;;;;;;23.69;50.36;97693.56;10538311;28;20043;-73
2023/06/10 14:13:00;;;;;;;8.35;4.53;;;;;;;23.61;51.47;97719.06;10537834;28;20101;-72
2023/06/10 14:18:21;;;;;;;6.88;4.35;;;;;;;23.82;51.68;97702.28;10537701;28;20050;-73
2023/06/10 14:23:43;;;;;;;5.32;3.85;;;;;;;24.48;51.06;97707.47;10537717;28;20044;-72
2023/06/10 14:29:04;;;;;;;5.17;3.83;;;;;;;25.17;48.08;97691.09;10537788;28;20036;-72
2023/06/10 14:34:33;;;;;;;4.45;3.33;;;;;;;25.85;45.26;97690.22;10537344;28;20380;-72
2023/06/10 14:39:54;;;;;;;4.55;3.78;;;;;;;26.52;43.88;97681.97;10553155;28;20067;-73
2023/06/10 14:45:15;;;;;;;5.95;3.60;;;;;;;26.50;42.14;97693.44;10565194;28;20047;-73
2023/06/10 14:50:37;;;;;;;6.38;3.90;;;;;;;25.72;41.76;97687.97;10565391;28;20043;-73
2023/06/10 14:55:58;;;;;;;9.27;3.90;;;;;;;25.26;41.96;97689.75;10550885;28;20051;-73
2023/06/10 15:01:20;;;;;;;4.77;3.47;;;;;;;25.19;41.79;97690.38;10537208;28;20327;-73
2023/06/10 15:06:42;;;;;;;8.23;3.67;;;;;;;25.37;40.14;97691.25;10555300;28;20047;-72
2023/06/10 15:12:03;;;;;;;8.38;4.30;;;;;;;25.06;39.02;97701.69;10558787;28;20450;-72
2023/06/10 15:17:24;;;;;;;5.50;3.97;;;;;;;25.30;39.56;97692.66;10558112;28;20051;-72
2023/06/10 15:22:45;;;;;;;5.57;3.90;;;;;;;25.39;38.37;97673.44;10514148;28;20052;-74
2023/06/10 15:28:06;;;;;;;5.22;3.40;;;;;;;25.44;37.32;97663.47;10557634;28;20046;-74
2023/06/10 15:33:28;;;;;;;6.70;3.83;;;;;;;25.40;37.52;97672.72;10543271;28;20704;-73
2023/06/10 15:38:48;;;;;;;4.80;3.20;;;;;;;25.38;37.84;97669.88;10543542;28;20058;-73
2023/06/10 15:44:09;;;;;;;5.63;4.18;;;;;;;25.60;38.05;97668.59;10556958;28;20044;-73
2023/06/10 15:49:31;;;;;;;7.32;3.83;;;;;;;25.81;37.79;97667.31;10543249;28;20039;-73
2023/06/10 15:54:52;;;;;;;5.25;3.53;;;;;;;25.60;38.64;97688.59;10542786;28;20047;-73
2023/06/10 16:00:13;;;;;;;7.30;3.80;;;;;;;24.67;41.25;97714.81;10556762;28;20127;-72
2023/06/10 16:05:34;;;;;;;7.32;3.80;;;;;;;23.85;43.79;97712.31;10556525;28;20043;-71
2023/06/10 16:10:54;;;;;;;6.25;3.95;;;;;;;23.29;45.22;97722.09;10556157;28;20485;-70
2023/06/10 16:16:15;;;;;;;8.15;4.10;;;;;;;23.00;46.06;97723.00;10541094;28;20401;-72
2023/06/10 16:21:39;;;;;;;7.45;4.55;;;;;;;22.99;45.25;97718.72;10555589;28;20478;-71
2023/06/10 16:27:00;;;;;;;7.22;4.53;;;;;;;23.09;44.58;97721.75;10569875;28;20035;-71
2023/06/10 16:32:21;;;;;;;7.80;5.03;;;;;;;23.33;44.06;97725.00;10555333;28;20073;-71
2023/06/10 16:37:43;;;;;;;7.10;4.78;;;;;;;23.55;43.46;97732.50;10555220;28;20512;-75
2023/06/10 16:43:05;;;;;;;6.38;5.00;;;;;;;23.55;42.62;97726.78;10555268;28;20439;-74
2023/06/10 16:48:26;;;;;;;5.75;4.50;;;;;;;23.67;42.73;97722.03;10540448;28;20047;-71
2023/06/10 16:53:47;;;;;;;6.82;4.72;;;;;;;23.65;43.13;97726.97;10586239;27;20484;-73
2023/06/10 16:59:09;;;;;;;5.43;4.07;;;;;;;23.38;43.93;97745.72;10582064;27;20491;-73
2023/06/10 17:04:30;;;;;;;6.50;4.60;;;;;;;23.21;44.48;97747.56;10596579;27;20118;-72
2023/06/10 17:09:51;;;;;;;8.48;4.78;;;;;;;23.02;44.35;97762.88;10581577;27;20285;-71
2023/06/10 17:15:12;;;;;;;5.15;4.22;;;;;;;22.86;45.26;97751.91;10596002;27;20057;-71
2023/06/10 17:20:33;;;;;;;6.55;4.75;;;;;;;22.79;46.04;97753.88;10581326;27;20040;-72
2023/06/10 17:25:54;;;;;;;10.25;4.90;;;;;;;22.65;46.10;97767.81;10594949;27;20036;-73
2023/06/10 17:31:15;;;;;;;7.40;3.92;;;;;;;22.52;46.88;97774.66;10608600;27;20047;-73
2023/06/10 17:36:37;;;;;;;6.75;4.80;;;;;;;22.39;47.37;97775.78;10594554;27;20059;-74
2023/06/10 17:41:58;;;;;;;7.40;4.70;;;;;;;22.30;47.83;97769.22;10580332;27;20495;-74
2023/06/10 17:47:20;;;;;;;8.38;4.80;;;;;;;22.25;48.20;97767.69;10594433;27;20092;-75
2023/06/10 17:52:41;;;;;;;7.55;4.65;;;;;;;22.25;48.45;97768.41;10594584;27;20114;-80
2023/06/10 17:58:03;;;;;;;7.05;5.22;;;;;;;22.24;48.66;97783.31;10608463;27;20046;-74
2023/06/10 18:03:25;;;;;;;6.95;4.72;;;;;;;22.16;49.13;97781.00;10594226;27;20043;-74
2023/06/10 18:08:47;;;;;;;6.07;4.28;;;;;;;22.07;49.83;97782.22;10580214;28;20065;-75
2023/06/10 18:14:09;;;;;;;5.30;4.18;;;;;;;21.98;50.15;97792.63;10579911;28;20112;-75
2023/06/10 18:19:30;;;;;;;7.47;4.38;;;;;;;21.87;50.47;97785.28;10593911;28;20046;-74
2023/06/10 18:24:51;;;;;;;10.23;4.85;;;;;;;21.67;50.68;97781.94;10593804;28;20115;-73
2023/06/10 18:30:13;;;;;;;6.10;4.90;;;;;;;21.51;51.02;97793.63;10593988;28;20046;-75
2023/06/10 18:35:34;;;;;;;6.35;4.70;;;;;;;21.33;51.92;97793.91;10579459;28;20047;-73
2023/06/10 18:40:56;;;;;;;7.38;4.72;;;;;;;21.17;52.38;97793.44;10597346;27;20035;-73
2023/06/10 18:46:17;;;;;;;8.00;4.78;;;;;;;20.99;52.82;97798.63;10615800;27;20035;-71
2023/06/10 18:51:39;;;;;;;7.67;5.20;;;;;;;20.80;52.88;97795.28;10615845;27;20054;-74
2023/06/10 18:57:00;;;;;;;10.15;4.95;;;;;;;20.65;53.59;97810.44;10587240;27;20047;-72
2023/06/10 19:02:21;;;;;;;7.72;4.85;;;;;;;20.48;54.06;97814.19;10586585;27;20043;-75
2023/06/10 19:07:42;;;;;;;8.77;5.65;;;;;;;20.36;54.67;97827.94;10572720;27;20066;-73
2023/06/10 19:13:03;;;;;;;7.05;5.30;;;;;;;20.24;55.04;97829.03;10615163;27;20401;-73
2023/06/10 19:18:25;;;;;;;8.68;5.38;;;;;;;20.15;55.48;97837.94;10614937;27;20113;-74
2023/06/10 19:23:46;;;;;;;9.70;5.50;;;;;;;20.13;55.94;97841.44;10586305;27;20074;-74
2023/06/10 19:29:07;;;;;;;8.20;5.40;;;;;;;20.13;56.17;97843.56;10586034;27;20043;-74
2023/06/10 19:34:28;;;;;;;8.88;5.65;;;;;;;20.06;55.92;97856.06;10581967;27;20454;-71
2023/06/10 19:39:49;;;;;;;8.25;5.43;;;;;;;19.97;56.58;97860.75;10599787;27;20168;-74
2023/06/10 19:45:10;;;;;;;7.32;5.45;;;;;;;19.95;57.07;97860.69;10585372;27;20058;-74
2023/06/10 19:50:32;;;;;;;9.75;5.85;;;;;;;19.98;57.18;97859.38;10598702;27;20031;-74
2023/06/10 19:55:53;;;;;;;8.38;5.70;;;;;;;19.91;57.05;97860.56;10613531;27;20073;-75
2023/06/10 20:01:14;;;;;;;10.65;7.00;;;;;;;19.72;57.39;97857.13;10585167;27;20039;-73
2023/06/10 20:06:35;;;;;;;10.07;6.97;;;;;;;19.44;58.05;97864.63;10598794;27;20039;-71
2023/06/10 20:11:56;;;;;;;9.52;7.30;;;;;;;19.26;58.63;97870.38;10584670;27;20043;-72
2023/06/10 20:17:18;;;;;;;12.20;7.40;;;;;;;19.10;59.11;97866.97;10585568;27;20138;-72
2023/06/10 20:22:39;;;;;;;10.02;6.95;;;;;;;18.98;59.42;97875.72;10568463;27;20389;-74
2023/06/10 20:28:00;;;;;;;9.23;6.13;;;;;;;18.83;59.54;97862.47;10579284;27;20035;-73
2023/06/10 20:33:21;;;;;;;9.48;6.68;;;;;;;18.74;59.70;97869.91;10567992;27;20041;-73
2023/06/10 20:38:42;;;;;;;7.15;6.28;;;;;;;18.67;60.30;97865.41;10554077;27;20043;-73
2023/06/10 20:44:03;;;;;;;9.70;6.57;;;;;;;18.58;60.52;97870.00;10595224;27;20043;-72
2023/06/10 20:49:25;;;;;;;7.95;6.22;;;;;;;18.49;60.58;97859.75;10590391;27;20443;-72
2023/06/10 20:54:46;;;;;;;10.95;6.70;;;;;;;18.45;60.70;97867.34;10540474;28;20485;-72
2023/06/10 21:00:07;;;;;;;10.38;7.00;;;;;;;18.32;61.04;97863.31;10540232;28;20052;-72
2023/06/10 21:05:28;;;;;;;8.57;6.60;;;;;;;18.21;61.21;97861.47;10567567;28;20063;-71
2023/06/10 21:10:49;;;;;;;9.18;6.63;;;;;;;18.13;61.26;97873.16;10553981;28;20404;-71
2023/06/10 21:16:10;;;;;;;10.07;5.82;;;;;;;18.06;61.58;97867.94;10539718;28;20055;-73
2023/06/10 21:21:31;;;;;;;11.23;6.05;;;;;;;17.96;61.69;97871.81;10567467;28;20112;-71
2023/06/10 21:26:53;;;;;;;11.38;6.43;;;;;;;17.83;62.21;97878.31;10567617;28;20093;-72
2023/06/10 21:32:14;;;;;;;10.57;7.13;;;;;;;17.66;62.56;97876.91;10553300;28;20100;-74
2023/06/10 21:37:36;;;;;;;15.10;8.73;;;;;;;17.56;63.05;97875.72;10567037;28;20048;-74
2023/06/10 21:42:56;;;;;;;13.00;9.15;;;;;;;17.41;63.71;97872.31;10552748;28;20040;-74
2023/06/10 21:48:17;;;;;;;10.90;7.30;;;;;;;17.31;63.84;97880.34;10552497;28;20047;-73
2023/06/10 21:53:38;;;;;;;12.80;8.27;;;;;;;17.26;64.45;97880.81;10566515;28;20035;-73
2023/06/10 21:58:59;;;;;;;11.00;7.65;;;;;;;17.26;64.31;97883.63;10566500;28;20047;-74
2023/06/10 22:04:20;;;;;;;15.20;7.53;;;;;;;17.24;64.41;97880.72;10552326;28;20066;-73
2023/06/10 22:09:51;;;;;;;11.18;6.75;;;;;;;17.20;64.47;97889.75;10552333;28;20119;-73
2023/06/10 22:15:12;;;;;;;10.45;7.43;;;;;;;17.16;65.06;97893.09;10555572;28;20054;-73
2023/06/10 22:20:34;;;;;;;10.05;7.00;;;;;;;17.14;65.24;97889.47;10561218;28;20048;-72
2023/06/10 22:25:54;;;;;;;10.60;7.13;;;;;;;17.13;65.69;97891.56;10546347;28;20047;-73
2023/06/10 22:31:15;;;;;;;10.75;7.15;;;;;;;17.08;65.52;97892.00;10560216;28;20048;-73
2023/06/10 22:36:36;;;;;;;10.98;6.50;;;;;;;17.03;65.90;97879.09;10573981;28;20044;-72
2023/06/10 22:41:57;;;;;;;10.38;6.88;;;;;;;16.94;66.13;97882.94;10573818;28;20080;-72
2023/06/10 22:47:18;;;;;;;11.85;7.07;;;;;;;16.87;66.23;97874.19;10573485;28;20039;-73
2023/06/10 22:52:39;;;;;;;9.25;6.43;;;;;;;16.82;66.55;97872.56;10545556;28;20496;-71
2023/06/10 22:58:00;;;;;;;9.35;6.70;;;;;;;16.77;66.42;97870.19;10558835;28;20055;-72
2023/06/10 23:03:20;;;;;;;10.15;6.30;;;;;;;16.71;66.81;97878.38;10565538;22;20493;-73
2023/06/10 23:08:41;;;;;;;12.00;7.03;;;;;;;16.67;66.64;97876.06;10516335;28;20040;-72
2023/06/10 23:14:02;;;;;;;9.88;6.25;;;;;;;16.55;66.91;97872.69;10516287;28;20070;-72
2023/06/10 23:19:23;;;;;;;10.25;6.07;;;;;;;16.46;66.82;97876.50;10516281;28;20102;-72
2023/06/10 23:24:44;;;;;;;10.95;6.78;;;;;;;16.39;67.03;97877.56;10515826;28;20085;-72
2023/06/10 23:30:06;;;;;;;8.98;5.88;;;;;;;16.37;66.72;97885.94;10516023;28;20078;-72
2023/06/10 23:35:26;;;;;;;14.80;6.07;;;;;;;16.34;66.27;97887.19;10515671;28;20051;-72
2023/06/10 23:40:47;;;;;;;7.55;5.93;;;;;;;16.30;66.53;97882.81;10529465;28;20051;-71
2023/06/10 23:46:08;;;;;;;10.02;6.28;;;;;;;16.27;66.20;97895.34;10514969;28;20040;-71
2023/06/10 23:51:28;;;;;;;9.55;5.75;;;;;;;16.21;66.18;97892.25;10529077;28;20040;-71
2023/06/10 23:56:49;;;;;;;8.32;5.28;;;;;;;16.17;65.96;97889.22;10543989;28;20378;-71
